Time;durP1;ratioP1;P1;durP2;ratioP2;P2;SDS_P1;SDS_P2;PMS_P1;PMS_P2;Temp;Humidity;BMP_temperature;BMP_pressure;BME280_temperature;BME280_humidity;BME280_pressure;Samples;Min_cycle;Max_cycle;Signal;HPM_P1;HPM_P2
2022/06/28 00:00:20;;;;;;;0.00;0.00;;;14.30;99.90;;;;;;5098315;28;20099;-81
2022/06/28 00:02:46;;;;;;;0.00;0.00;;;14.30;99.90;;;;;;5116142;28;20129;-80
2022/06/28 00:05:13;;;;;;;0.10;0.10;;;14.20;99.90;;;;;;5115974;28;20126;-80
2022/06/28 00:07:39;;;;;;;0.00;0.00;;;14.20;99.90;;;;;;5116611;28;20047;-80
2022/06/28 00:10:07;;;;;;;0.00;0.00;;;14.20;99.90;;;;;;5116347;28;20039;-80
2022/06/28 00:12:33;;;;;;;0.00;0.00;;;14.10;99.90;;;;;;5116173;28;20057;-80
2022/06/28 00:17:42;;;;;;;0.05;0.00;;;14.10;99.90;;;;;;5116237;28;20062;-80
2022/06/28 00:20:10;;;;;;;0.00;0.00;;;14.10;99.90;;;;;;5098587;28;20063;-80
2022/06/28 00:22:36;;;;;;;0.00;0.00;;;14.10;99.90;;;;;;5115997;28;20047;-80
2022/06/28 00:25:02;;;;;;;0.00;0.00;;;14.10;99.90;;;;;;5116254;28;20047;-80
2022/06/28 00:27:28;;;;;;;0.00;0.00;;;14.10;99.90;;;;;;5116216;28;20042;-80
2022/06/28 00:29:53;;;;;;;0.10;0.00;;;14.10;99.90;;;;;;5116132;27;20047;-80
2022/06/28 00:32:19;;;;;;;0.10;0.00;;;14.10;99.90;;;;;;5118876;27;20055;-80
2022/06/28 00:34:47;;;;;;;0.00;0.00;;;14.10;99.90;;;;;;5102498;27;20055;-80
2022/06/28 00:37:12;;;;;;;0.00;0.00;;;14.10;99.90;;;;;;5119875;27;20513;-80
2022/06/28 00:39:38;;;;;;;0.00;0.00;;;14.10;99.90;;;;;;5102933;27;20035;-80
2022/06/28 00:42:04;;;;;;;0.00;0.00;;;14.10;99.90;;;;;;5119542;27;20475;-80
2022/06/28 00:44:31;;;;;;;5.57;0.80;;;14.10;99.90;;;;;;5119713;27;20043;-80
2022/06/28 00:46:57;;;;;;;0.00;0.00;;;14.00;99.90;;;;;;5119827;27;20054;-80
2022/06/28 00:49:24;;;;;;;0.52;0.22;;;14.00;99.90;;;;;;5119842;27;20035;-80
2022/06/28 00:51:49;;;;;;;0.00;0.00;;;14.00;99.90;;;;;;5119580;27;20055;-80
2022/06/28 00:54:15;;;;;;;0.00;0.00;;;14.00;99.90;;;;;;5118944;27;20058;-80
2022/06/28 00:56:41;;;;;;;0.00;0.00;;;14.00;99.90;;;;;;5118976;27;20546;-80
2022/06/28 00:59:06;;;;;;;0.45;0.25;;;13.90;99.90;;;;;;5119493;27;20054;-80
2022/06/28 01:01:32;;;;;;;0.80;0.30;;;13.90;99.90;;;;;;5119104;27;20051;-80
2022/06/28 01:03:58;;;;;;;0.00;0.00;;;13.90;99.90;;;;;;5119577;27;20082;-80
2022/06/28 01:06:24;;;;;;;0.00;0.00;;;13.80;99.90;;;;;;5119330;27;20043;-80
2022/06/28 01:08:50;;;;;;;0.00;0.00;;;13.80;99.90;;;;;;5119237;27;20050;-80
2022/06/28 01:11:19;;;;;;;0.00;0.00;;;13.70;99.90;;;;;;5102261;27;20093;-80
2022/06/28 01:13:50;;;;;;;0.00;0.00;;;13.80;99.90;;;;;;5101693;27;20133;-80
2022/06/28 01:16:17;;;;;;;0.00;0.00;;;13.80;99.90;;;;;;5102789;27;20096;-80
2022/06/28 01:18:43;;;;;;;0.10;0.10;;;13.80;99.90;;;;;;5119018;27;20039;-80
2022/06/28 01:21:11;;;;;;;0.00;0.00;;;13.80;99.90;;;;;;5101537;27;20446;-80
2022/06/28 01:23:37;;;;;;;0.00;0.00;;;13.80;99.90;;;;;;5118752;27;20479;-80
2022/06/28 01:26:03;;;;;;;0.00;0.00;;;13.80;99.90;;;;;;5119002;27;20081;-80
2022/06/28 01:28:31;;;;;;;0.30;0.10;;;13.80;99.90;;;;;;5101240;27;20463;-79
2022/06/28 01:30:57;;;;;;;0.00;0.00;;;13.80;99.90;;;;;;5118958;27;20137;-80
2022/06/28 01:33:23;;;;;;;0.00;0.00;;;13.80;99.90;;;;;;5118754;27;20101;-80
2022/06/28 01:35:48;;;;;;;0.08;0.08;;;13.70;99.90;;;;;;5118746;27;20130;-79
2022/06/28 01:38:14;;;;;;;0.00;0.00;;;13.70;99.90;;;;;;5118749;27;20130;-80
2022/06/28 01:40:45;;;;;;;0.00;0.00;;;13.70;99.90;;;;;;5118681;27;20047;-80
2022/06/28 01:43:14;;;;;;;1.95;0.20;;;13.70;99.90;;;;;;5101576;27;20039;-80
2022/06/28 01:45:44;;;;;;;0.10;0.10;;;13.70;99.90;;;;;;5118730;27;20046;-80
2022/06/28 01:48:10;;;;;;;0.00;0.00;;;13.70;99.90;;;;;;5118722;27;20538;-80
2022/06/28 01:50:36;;;;;;;0.90;0.00;;;13.70;99.90;;;;;;5118484;27;20118;-80
2022/06/28 01:53:02;;;;;;;0.22;0.22;;;13.60;99.90;;;;;;5118396;27;20394;-80
2022/06/28 01:55:28;;;;;;;0.25;0.25;;;13.60;99.90;;;;;;5118247;27;20043;-80
2022/06/28 01:57:54;;;;;;;0.00;0.00;;;13.60;99.90;;;;;;5118457;27;20043;-80
2022/06/28 02:00:20;;;;;;;0.00;0.00;;;13.60;99.90;;;;;;5114475;28;20061;-80
2022/06/28 02:02:46;;;;;;;0.10;0.00;;;13.60;99.90;;;;;;5114452;28;20040;-80
2022/06/28 02:05:11;;;;;;;0.00;0.00;;;13.60;99.90;;;;;;5114721;28;20044;-80
2022/06/28 02:07:45;;;;;;;0.85;0.00;;;13.60;99.90;;;;;;5114707;28;20036;-80
2022/06/28 02:10:10;;;;;;;0.20;0.10;;;13.60;99.90;;;;;;5097607;28;20043;-80
2022/06/28 02:12:36;;;;;;;0.00;0.00;;;13.50;99.90;;;;;;5097617;28;20543;-80
2022/06/28 02:15:02;;;;;;;0.00;0.00;;;13.50;99.90;;;;;;5114469;28;20043;-79
2022/06/28 02:17:28;;;;;;;0.00;0.00;;;13.50;99.90;;;;;;5114586;28;20044;-79
2022/06/28 02:19:54;;;;;;;0.00;0.00;;;13.40;99.90;;;;;;5114472;28;20039;-79
2022/06/28 02:22:20;;;;;;;0.00;0.00;;;13.40;99.90;;;;;;5096826;28;20120;-80
2022/06/28 02:24:45;;;;;;;0.00;0.00;;;13.40;99.90;;;;;;5114222;28;20130;-80
2022/06/28 02:27:11;;;;;;;0.32;0.00;;;13.40;99.90;;;;;;5096846;28;20104;-80
2022/06/28 02:29:36;;;;;;;0.00;0.00;;;13.40;99.90;;;;;;5097161;28;20067;-79
2022/06/28 02:32:02;;;;;;;0.00;0.00;;;13.40;99.90;;;;;;5096766;28;20383;-79
2022/06/28 02:42:41;;;;;;;0.00;0.00;;;13.40;99.90;;;;;;5113829;28;20495;-80
2022/06/28 02:45:07;;;;;;;0.00;0.00;;;13.30;99.90;;;;;;5113891;28;20038;-80
2022/06/28 02:47:33;;;;;;;0.00;0.00;;;13.30;99.90;;;;;;5114025;28;20086;-80
2022/06/28 02:49:58;;;;;;;0.00;0.00;;;13.30;99.90;;;;;;5113809;28;20087;-80
2022/06/28 02:52:24;;;;;;;0.00;0.00;;;13.30;99.90;;;;;;5113832;28;20062;-80
2022/06/28 02:54:50;;;;;;;0.00;0.00;;;13.30;99.90;;;;;;5095956;28;20114;-80
2022/06/28 02:57:15;;;;;;;0.00;0.00;;;13.20;99.90;;;;;;5113610;28;20040;-80
2022/06/28 02:59:41;;;;;;;0.05;0.00;;;13.20;99.90;;;;;;5096424;28;20073;-80
2022/06/28 03:02:06;;;;;;;2.05;0.20;;;13.10;99.90;;;;;;5113391;28;20051;-80
2022/06/28 03:04:32;;;;;;;0.00;0.00;;;13.10;99.90;;;;;;5096372;28;20398;-80
2022/06/28 03:06:58;;;;;;;0.00;0.00;;;13.10;99.90;;;;;;5096302;28;20059;-80
2022/06/28 03:09:23;;;;;;;0.00;0.00;;;13.10;99.90;;;;;;5096705;28;20142;-80
2022/06/28 03:11:49;;;;;;;0.52;0.28;;;13.10;99.90;;;;;;5113493;28;20055;-80
2022/06/28 03:14:15;;;;;;;0.00;0.00;;;13.10;99.90;;;;;;5096078;28;20150;-80
2022/06/28 03:16:41;;;;;;;0.00;0.00;;;13.00;99.90;;;;;;5113478;28;20039;-80
2022/06/28 03:19:06;;;;;;;0.00;0.00;;;13.00;99.90;;;;;;5114077;28;20044;-80
2022/06/28 03:21:32;;;;;;;0.00;0.00;;;13.00;99.90;;;;;;5113341;28;20048;-80
2022/06/28 03:23:57;;;;;;;0.00;0.00;;;13.00;99.90;;;;;;5096436;28;20048;-80
2022/06/28 03:26:23;;;;;;;0.00;0.00;;;13.00;99.90;;;;;;5095909;28;20062;-80
2022/06/28 03:28:49;;;;;;;0.00;0.00;;;13.00;99.90;;;;;;5113422;28;20048;-80
2022/06/28 03:31:14;;;;;;;0.00;0.00;;;13.00;99.90;;;;;;5113228;28;20398;-80
2022/06/28 03:33:40;;;;;;;0.00;0.00;;;13.00;99.90;;;;;;5113175;28;20044;-80
2022/06/28 03:36:05;;;;;;;0.00;0.00;;;13.00;99.90;;;;;;5096180;28;20043;-80
2022/06/28 03:38:31;;;;;;;1.77;0.40;;;13.00;99.90;;;;;;5096065;28;20048;-80
2022/06/28 03:40:57;;;;;;;0.00;0.00;;;13.00;99.90;;;;;;5113175;28;20053;-80
2022/06/28 03:43:22;;;;;;;0.00;0.00;;;13.00;99.90;;;;;;5113044;28;20036;-81
2022/06/28 03:45:48;;;;;;;0.10;0.00;;;12.90;99.90;;;;;;5112978;28;20057;-80
2022/06/28 03:48:14;;;;;;;0.00;0.00;;;12.90;99.90;;;;;;5113020;28;20062;-81
2022/06/28 03:50:39;;;;;;;0.00;0.00;;;12.90;99.90;;;;;;5113795;28;20044;-81
2022/06/28 03:53:05;;;;;;;0.00;0.00;;;12.90;99.90;;;;;;5113168;28;20032;-80
2022/06/28 03:55:30;;;;;;;0.00;0.00;;;12.90;99.90;;;;;;5095632;28;20380;-80
2022/06/28 03:57:56;;;;;;;0.00;0.00;;;13.00;99.90;;;;;;5095867;28;20478;-80
2022/06/28 04:00:22;;;;;;;0.28;0.15;;;13.00;99.90;;;;;;5095830;28;20449;-80
2022/06/28 04:02:48;;;;;;;0.00;0.00;;;13.10;99.90;;;;;;5095693;28;20146;-80
2022/06/28 04:05:13;;;;;;;0.00;0.00;;;13.00;99.90;;;;;;5113182;28;20035;-80
2022/06/28 04:07:39;;;;;;;0.00;0.00;;;13.00;99.90;;;;;;5116609;28;20042;-81
2022/06/28 04:10:05;;;;;;;0.52;0.10;;;13.10;99.90;;;;;;5099428;28;20055;-80
2022/06/28 04:12:31;;;;;;;0.30;0.28;;;13.20;99.90;;;;;;5116878;28;20085;-81
2022/06/28 04:14:56;;;;;;;0.08;0.08;;;13.20;99.90;;;;;;5116922;28;20051;-80
2022/06/28 04:17:22;;;;;;;0.10;0.10;;;13.20;99.90;;;;;;5117493;28;20135;-80
2022/06/28 04:19:48;;;;;;;0.10;0.05;;;13.20;99.90;;;;;;5099721;28;20052;-80
2022/06/28 04:22:13;;;;;;;0.00;0.00;;;13.20;99.90;;;;;;5116294;28;20498;-81
2022/06/28 04:24:39;;;;;;;0.00;0.00;;;13.20;99.90;;;;;;5116728;28;20043;-80
2022/06/28 04:27:05;;;;;;;0.00;0.00;;;13.20;99.90;;;;;;5116737;28;20048;-80
2022/06/28 04:29:31;;;;;;;0.00;0.00;;;13.20;99.90;;;;;;5099554;28;20126;-80
2022/06/28 04:31:56;;;;;;;0.65;0.22;;;13.30;99.90;;;;;;5099138;28;20134;-80
2022/06/28 04:34:22;;;;;;;0.00;0.00;;;13.30;99.90;;;;;;5116579;28;20047;-80
2022/06/28 04:36:48;;;;;;;1.85;0.13;;;13.30;99.90;;;;;;5116354;28;20042;-80
2022/06/28 04:39:14;;;;;;;0.30;0.20;;;13.30;99.90;;;;;;5116490;28;20046;-80
2022/06/28 04:41:39;;;;;;;0.00;0.00;;;13.40;99.90;;;;;;5116394;28;20426;-80
2022/06/28 04:44:05;;;;;;;0.00;0.00;;;13.40;99.90;;;;;;5116463;28;20040;-80
2022/06/28 04:46:31;;;;;;;0.00;0.00;;;13.40;99.90;;;;;;5099316;28;20138;-80
2022/06/28 04:48:56;;;;;;;1.08;0.10;;;13.40;99.90;;;;;;5099265;28;20044;-80
2022/06/28 04:51:22;;;;;;;0.00;0.00;;;13.40;99.90;;;;;;5116237;28;20043;-80
2022/06/28 04:53:47;;;;;;;0.00;0.00;;;13.40;99.90;;;;;;5116182;28;20134;-81
2022/06/28 04:56:14;;;;;;;0.00;0.00;;;13.40;99.90;;;;;;5116192;28;20053;-81
2022/06/28 04:58:40;;;;;;;0.00;0.00;;;13.40;99.90;;;;;;5099003;28;20090;-81
2022/06/28 05:01:06;;;;;;;0.00;0.00;;;13.50;99.90;;;;;;5115267;28;20083;-81
2022/06/28 05:03:32;;;;;;;3.20;0.00;;;13.50;99.90;;;;;;5115972;28;20040;-80
2022/06/28 05:05:58;;;;;;;0.00;0.00;;;13.60;99.90;;;;;;5116084;28;20050;-80
2022/06/28 05:08:24;;;;;;;0.00;0.00;;;13.60;99.90;;;;;;5098147;28;20109;-81
2022/06/28 05:10:49;;;;;;;0.03;0.03;;;13.60;99.90;;;;;;5115323;28;20062;-81
2022/06/28 05:13:15;;;;;;;0.00;0.00;;;13.70;99.90;;;;;;5115756;28;20040;-81
2022/06/28 05:15:41;;;;;;;0.05;0.00;;;13.70;99.90;;;;;;5115793;28;20044;-80
2022/06/28 05:18:07;;;;;;;0.10;0.00;;;13.80;99.90;;;;;;5098328;28;20360;-81
2022/06/28 05:20:32;;;;;;;0.00;0.00;;;13.80;99.90;;;;;;5115516;28;20051;-81
2022/06/28 05:22:58;;;;;;;0.38;0.00;;;13.90;99.90;;;;;;5097818;28;20104;-80
2022/06/28 05:25:25;;;;;;;0.00;0.00;;;14.00;99.90;;;;;;5115511;28;20040;-80
2022/06/28 05:27:51;;;;;;;0.00;0.00;;;14.00;99.90;;;;;;5114728;28;20062;-80
2022/06/28 05:30:17;;;;;;;0.00;0.00;;;14.10;99.90;;;;;;5115142;28;20044;-80
2022/06/28 05:32:43;;;;;;;0.00;0.00;;;14.10;99.90;;;;;;5115957;28;20053;-80
2022/06/28 05:35:09;;;;;;;0.13;0.00;;;14.20;99.90;;;;;;5097995;28;20486;-81
2022/06/28 05:37:34;;;;;;;0.00;0.00;;;14.20;99.90;;;;;;5115600;28;20123;-80
2022/06/28 05:40:01;;;;;;;0.00;0.00;;;14.20;99.90;;;;;;5115209;28;20052;-80
2022/06/28 05:42:27;;;;;;;0.00;0.00;;;14.30;99.90;;;;;;5114997;28;20135;-80
2022/06/28 05:44:52;;;;;;;0.00;0.00;;;14.40;99.90;;;;;;5115092;28;20483;-80
2022/06/28 05:47:18;;;;;;;0.40;0.10;;;14.60;99.90;;;;;;5115366;28;20101;-80
2022/06/28 05:49:43;;;;;;;0.00;0.00;;;14.90;99.90;;;;;;5097206;28;20052;-80
2022/06/28 05:52:09;;;;;;;0.52;0.40;;;15.30;99.90;;;;;;5114713;28;20059;-80
2022/06/28 05:54:35;;;;;;;0.00;0.00;;;15.60;99.90;;;;;;5097472;28;20097;-80
2022/06/28 05:57:01;;;;;;;0.90;0.00;;;15.70;99.90;;;;;;5097348;28;20145;-79
2022/06/28 05:59:27;;;;;;;0.08;0.00;;;15.70;99.90;;;;;;5116514;27;20105;-80
2022/06/28 06:01:55;;;;;;;0.10;0.00;;;15.70;99.90;;;;;;5118793;27;20462;-79
2022/06/28 06:04:22;;;;;;;0.00;0.00;;;15.60;99.90;;;;;;5118656;27;20055;-79
2022/06/28 06:06:47;;;;;;;0.30;0.10;;;15.60;99.90;;;;;;5118065;27;20151;-79
2022/06/28 06:09:13;;;;;;;0.20;0.20;;;15.50;99.90;;;;;;5100458;27;20085;-79
2022/06/28 06:11:38;;;;;;;0.00;0.00;;;15.30;99.90;;;;;;5100613;27;20143;-80
2022/06/28 06:14:05;;;;;;;0.15;0.00;;;15.40;99.90;;;;;;5100322;27;20054;-80
2022/06/28 06:16:31;;;;;;;0.00;0.00;;;15.40;99.90;;;;;;5117830;27;20466;-80
2022/06/28 06:18:57;;;;;;;0.55;0.30;;;15.40;99.90;;;;;;5117710;27;20039;-82
2022/06/28 06:21:22;;;;;;;0.08;0.08;;;15.60;99.90;;;;;;5117625;27;20126;-82
2022/06/28 06:23:48;;;;;;;0.00;0.00;;;15.70;99.90;;;;;;5117939;27;20088;-81
2022/06/28 06:26:14;;;;;;;0.05;0.05;;;15.80;99.90;;;;;;5117807;27;20039;-81
2022/06/28 06:28:39;;;;;;;0.30;0.10;;;15.80;99.90;;;;;;5117182;27;20043;-81
2022/06/28 06:31:07;;;;;;;0.45;0.45;;;15.80;99.90;;;;;;5118293;27;20047;-81
2022/06/28 06:33:34;;;;;;;0.00;0.00;;;15.80;99.90;;;;;;5117838;27;20039;-81
2022/06/28 06:35:59;;;;;;;0.00;0.00;;;15.80;99.90;;;;;;5117485;27;20078;-81
2022/06/28 06:38:25;;;;;;;1.10;0.68;;;15.80;99.90;;;;;;5100279;27;20070;-81
2022/06/28 06:40:51;;;;;;;1.40;0.55;;;15.90;99.90;;;;;;5099990;27;20059;-82
2022/06/28 06:43:16;;;;;;;0.00;0.00;;;15.90;99.90;;;;;;5116402;27;20074;-81
2022/06/28 06:45:42;;;;;;;0.10;0.00;;;15.90;99.90;;;;;;5116660;27;20091;-81
2022/06/28 06:48:08;;;;;;;0.00;0.00;;;15.90;99.90;;;;;;5100475;27;20387;-81
2022/06/28 06:50:34;;;;;;;0.00;0.00;;;15.90;99.90;;;;;;5100402;27;20115;-81
2022/06/28 06:53:02;;;;;;;0.00;0.00;;;15.90;99.90;;;;;;5100524;27;20084;-81
2022/06/28 06:55:28;;;;;;;0.15;0.03;;;16.00;99.90;;;;;;5099769;27;20406;-82
2022/06/28 06:57:53;;;;;;;0.25;0.25;;;16.00;99.90;;;;;;5117265;27;20039;-81
2022/06/28 07:00:19;;;;;;;0.00;0.00;;;16.00;99.90;;;;;;5116850;27;20410;-82
2022/06/28 07:02:45;;;;;;;0.00;0.00;;;16.10;99.90;;;;;;5116875;27;20403;-82
2022/06/28 07:05:11;;;;;;;0.00;0.00;;;16.20;99.90;;;;;;5099751;27;20047;-83
2022/06/28 07:07:37;;;;;;;0.05;0.00;;;16.20;99.90;;;;;;5116941;27;20478;-82
2022/06/28 07:10:03;;;;;;;0.10;0.00;;;16.20;99.90;;;;;;5116683;27;20053;-82
2022/06/28 07:12:29;;;;;;;0.00;0.00;;;16.30;99.90;;;;;;5117719;27;20051;-82
2022/06/28 07:14:55;;;;;;;0.05;0.05;;;16.50;99.90;;;;;;5116950;27;20479;-82
2022/06/28 07:17:21;;;;;;;0.55;0.00;;;16.60;99.90;;;;;;5117221;27;20043;-82
2022/06/28 07:19:46;;;;;;;0.20;0.10;;;16.60;99.90;;;;;;5099298;28;20494;-82
2022/06/28 07:22:12;;;;;;;0.00;0.00;;;16.70;99.90;;;;;;5115459;27;20444;-82
2022/06/28 07:24:38;;;;;;;0.20;0.10;;;16.80;99.90;;;;;;5116321;27;20099;-82
2022/06/28 07:27:04;;;;;;;0.00;0.00;;;16.90;99.90;;;;;;5116051;27;20055;-82
2022/06/28 07:29:30;;;;;;;0.00;0.00;;;17.10;99.90;;;;;;5116652;28;20043;-81
2022/06/28 07:31:56;;;;;;;0.10;0.10;;;17.20;99.90;;;;;;5099339;27;20047;-83
2022/06/28 07:34:22;;;;;;;0.00;0.00;;;17.40;99.90;;;;;;5099815;27;20047;-82
2022/06/28 07:36:48;;;;;;;0.10;0.10;;;17.50;99.90;;;;;;5116664;27;20043;-82
2022/06/28 07:39:14;;;;;;;0.00;0.00;;;17.60;99.90;;;;;;5116631;27;20043;-82
2022/06/28 07:41:40;;;;;;;0.75;0.35;;;17.70;99.90;;;;;;5116133;28;20504;-82
2022/06/28 07:44:05;;;;;;;0.00;0.00;;;17.80;99.90;;;;;;5116491;28;20043;-82
2022/06/28 07:46:31;;;;;;;0.28;0.25;;;17.90;99.90;;;;;;5099132;28;20149;-82
2022/06/28 07:48:56;;;;;;;0.05;0.05;;;18.00;99.90;;;;;;5099596;28;20085;-82
2022/06/28 07:54:06;;;;;;;0.00;0.00;;;18.10;99.90;;;;;;5117189;28;20048;-82
2022/06/28 07:56:32;;;;;;;0.10;0.10;;;18.20;99.90;;;;;;5099113;28;20062;-82
2022/06/28 07:58:58;;;;;;;0.00;0.00;;;18.40;99.90;;;;;;5116952;28;20043;-82
2022/06/28 08:01:24;;;;;;;0.43;0.00;;;18.40;99.90;;;;;;5116077;28;20100;-82
2022/06/28 08:03:49;;;;;;;0.00;0.00;;;18.40;99.90;;;;;;5099538;28;20263;-82
2022/06/28 08:06:15;;;;;;;0.00;0.00;;;18.50;99.90;;;;;;5116124;28;20478;-81
2022/06/28 08:08:41;;;;;;;0.52;0.30;;;18.40;99.90;;;;;;5116413;28;20047;-81
2022/06/28 08:11:08;;;;;;;0.30;0.30;;;18.50;99.90;;;;;;5133649;28;20130;-81
2022/06/28 08:13:34;;;;;;;0.00;0.00;;;18.40;99.90;;;;;;5116333;28;20059;-81
2022/06/28 08:16:01;;;;;;;0.00;0.00;;;18.20;99.90;;;;;;5116282;28;20047;-81
2022/06/28 08:18:27;;;;;;;0.00;0.00;;;18.10;99.90;;;;;;5115364;28;20081;-81
2022/06/28 08:20:53;;;;;;;0.00;0.00;;;18.10;99.90;;;;;;5098164;28;20059;-81
2022/06/28 08:23:18;;;;;;;0.00;0.00;;;18.20;99.90;;;;;;5099038;28;20043;-81
2022/06/28 08:25:46;;;;;;;0.20;0.20;;;18.40;99.90;;;;;;5099050;28;20069;-81
2022/06/28 08:28:13;;;;;;;0.00;0.00;;;18.50;99.90;;;;;;5116112;28;20081;-81
2022/06/28 08:30:39;;;;;;;1.45;0.43;;;18.50;99.90;;;;;;5098844;28;20112;-81
2022/06/28 08:33:05;;;;;;;0.15;0.00;;;18.50;99.90;;;;;;5099199;28;20539;-81
2022/06/28 08:35:31;;;;;;;0.00;0.00;;;18.60;99.90;;;;;;5098598;28;20142;-81
2022/06/28 08:37:56;;;;;;;0.03;0.03;;;18.80;99.90;;;;;;5116018;28;20085;-81
2022/06/28 08:40:25;;;;;;;0.00;0.00;;;19.10;99.90;;;;;;5116099;28;20057;-81
2022/06/28 08:42:54;;;;;;;0.00;0.00;;;19.30;99.90;;;;;;5115793;28;20047;-81
2022/06/28 08:45:21;;;;;;;0.00;0.00;;;19.40;99.90;;;;;;5099139;28;20082;-81
2022/06/28 08:47:50;;;;;;;0.00;0.00;;;19.60;99.90;;;;;;5098988;28;20127;-81
2022/06/28 08:50:45;;;;;;;0.00;0.00;;;19.70;99.90;;;;;;5098672;28;20494;-81
2022/06/28 08:53:10;;;;;;;0.00;0.00;;;19.80;99.90;;;;;;5116383;27;20063;-81
2022/06/28 08:55:37;;;;;;;0.00;0.00;;;19.90;99.90;;;;;;5119662;27;20391;-80
2022/06/28 08:58:06;;;;;;;0.20;0.15;;;19.80;99.90;;;;;;5102497;27;20482;-81
2022/06/28 09:00:31;;;;;;;0.00;0.00;;;19.90;99.90;;;;;;5119138;27;20051;-80
2022/06/28 09:02:57;;;;;;;0.60;0.15;;;19.90;99.90;;;;;;5102907;27;20470;-80
2022/06/28 09:05:25;;;;;;;0.00;0.00;;;19.70;99.90;;;;;;5119453;27;20039;-81
2022/06/28 09:07:53;;;;;;;0.00;0.00;;;19.70;99.90;;;;;;5119396;27;20039;-80
2022/06/28 09:10:19;;;;;;;0.00;0.00;;;19.80;99.90;;;;;;5102329;27;20082;-80
2022/06/28 09:13:04;;;;;;;0.00;0.00;;;20.00;99.90;;;;;;5102392;27;20054;-80
2022/06/28 09:15:56;;;;;;;0.10;0.10;;;20.10;99.90;;;;;;5119943;27;20039;-80
2022/06/28 09:18:43;;;;;;;0.00;0.00;;;20.20;99.90;;;;;;5119334;27;20046;-80
2022/06/28 09:21:11;;;;;;;0.20;0.20;;;20.40;99.90;;;;;;5118967;27;20497;-80
2022/06/28 09:23:42;;;;;;;0.00;0.00;;;20.30;99.90;;;;;;5102042;27;20086;-80
2022/06/28 09:26:14;;;;;;;0.00;0.00;;;20.40;99.90;;;;;;5119720;27;20431;-80
2022/06/28 09:28:43;;;;;;;0.00;0.00;;;20.40;99.90;;;;;;5101942;27;20445;-80
2022/06/28 09:31:29;;;;;;;0.13;0.13;;;20.50;99.90;;;;;;5119196;27;20082;-80
2022/06/28 09:34:01;;;;;;;0.00;0.00;;;20.60;99.90;;;;;;5101935;27;20137;-80
2022/06/28 09:36:28;;;;;;;0.00;0.00;;;20.70;99.90;;;;;;5118906;27;20100;-80
2022/06/28 09:38:56;;;;;;;0.82;0.15;;;20.90;99.90;;;;;;5118958;27;20043;-80
2022/06/28 09:41:29;;;;;;;0.00;0.00;;;21.00;99.90;;;;;;5118756;27;20048;-80
2022/06/28 09:43:58;;;;;;;0.00;0.00;;;21.10;99.90;;;;;;5101027;27;20383;-80
2022/06/28 09:46:28;;;;;;;0.00;0.00;;;21.20;99.90;;;;;;5101327;27;20039;-80
2022/06/28 09:49:03;;;;;;;0.00;0.00;;;21.30;99.90;;;;;;5118879;27;20483;-80
2022/06/28 09:51:30;;;;;;;0.00;0.00;;;21.40;94.20;;;;;;5101786;27;20551;-80
2022/06/28 09:54:05;;;;;;;0.00;0.00;;;21.40;99.90;;;;;;5118474;27;20130;-80
2022/06/28 09:56:35;;;;;;;0.00;0.00;;;21.40;99.90;;;;;;5101109;27;20432;-80
2022/06/28 09:59:01;;;;;;;0.00;0.00;;;21.50;98.20;;;;;;5118424;27;20047;-80
2022/06/28 10:01:27;;;;;;;0.10;0.10;;;21.60;98.60;;;;;;5118083;27;20407;-80
2022/06/28 10:03:53;;;;;;;0.00;0.00;;;21.70;98.70;;;;;;5117171;27;20051;-80
2022/06/28 10:06:21;;;;;;;0.00;0.00;;;21.90;98.30;;;;;;5118692;27;20039;-80
2022/06/28 10:08:48;;;;;;;0.00;0.00;;;22.00;99.90;;;;;;5101855;27;20129;-80
2022/06/28 10:11:14;;;;;;;2.72;0.63;;;21.80;98.70;;;;;;5118169;27;20414;-80
2022/06/28 10:16:31;;;;;;;0.10;0.10;;;21.80;95.40;;;;;;5117972;27;20495;-80
2022/06/28 10:18:59;;;;;;;0.00;0.00;;;21.60;97.60;;;;;;5118134;27;20042;-80
2022/06/28 10:21:44;;;;;;;0.00;0.00;;;21.80;99.90;;;;;;5101002;27;20047;-80
2022/06/28 10:24:10;;;;;;;0.57;0.30;;;22.00;99.20;;;;;;5118153;27;20133;-80
2022/06/28 10:26:36;;;;;;;0.00;0.00;;;22.20;99.90;;;;;;5118073;27;20062;-80
2022/06/28 10:29:03;;;;;;;0.00;0.00;;;22.30;95.10;;;;;;5117852;27;20047;-80
2022/06/28 10:31:31;;;;;;;0.00;0.00;;;22.50;99.90;;;;;;5117708;27;20517;-80
2022/06/28 10:33:59;;;;;;;0.00;0.00;;;22.40;97.60;;;;;;5117841;27;20047;-80
2022/06/28 10:36:28;;;;;;;0.00;0.00;;;22.50;99.20;;;;;;5117562;27;20043;-80
2022/06/28 10:39:08;;;;;;;0.00;0.00;;;22.60;97.30;;;;;;5117810;27;20075;-80
2022/06/28 10:41:45;;;;;;;0.00;0.00;;;22.70;98.80;;;;;;5117448;27;20039;-80
2022/06/28 10:44:18;;;;;;;0.00;0.00;;;22.90;95.60;;;;;;5116806;27;20402;-80
2022/06/28 10:46:51;;;;;;;0.00;0.00;;;22.90;92.20;;;;;;5117374;27;20126;-80
2022/06/28 10:49:18;;;;;;;0.00;0.00;;;23.10;95.20;;;;;;5117431;27;20043;-80
2022/06/28 10:52:21;;;;;;;0.00;0.00;;;23.30;98.60;;;;;;5117481;27;20046;-80
2022/06/28 10:54:56;;;;;;;0.00;0.00;;;23.30;93.80;;;;;;5100287;27;20141;-80
2022/06/28 10:57:23;;;;;;;;;;;23.50;90.80;;;;;;5117544;27;20046;-80
2022/06/28 10:59:52;;;;;;;0.00;0.00;;;23.60;93.40;;;;;;5096473;28;20351;-81
2022/06/28 11:02:18;;;;;;;0.00;0.00;;;23.70;91.30;;;;;;5097097;28;20084;-81
2022/06/28 11:04:46;;;;;;;0.00;0.00;;;23.90;93.00;;;;;;5113781;28;20043;-80
2022/06/28 11:07:25;;;;;;;0.00;0.00;;;24.10;92.40;;;;;;5113732;28;20051;-80
2022/06/28 11:10:05;;;;;;;0.00;0.00;;;24.20;90.80;;;;;;5096542;28;20101;-80
2022/06/28 11:12:37;;;;;;;0.00;0.00;;;24.30;94.20;;;;;;5113749;28;20043;-80
2022/06/28 11:15:08;;;;;;;0.00;0.00;;;24.40;92.10;;;;;;5113556;28;20039;-80
2022/06/28 11:17:44;;;;;;;0.00;0.00;;;24.30;87.70;;;;;;5113754;28;20395;-80
2022/06/28 11:20:14;;;;;;;0.00;0.00;;;23.90;83.90;;;;;;5096293;28;20459;-80
2022/06/28 11:22:45;;;;;;;0.00;0.00;;;23.90;92.30;;;;;;5113831;28;20081;-80
2022/06/28 11:25:13;;;;;;;0.00;0.00;;;24.10;85.60;;;;;;5113248;28;20089;-80
2022/06/28 11:27:47;;;;;;;0.00;0.00;;;24.20;83.40;;;;;;5096524;28;20047;-80
2022/06/28 11:30:14;;;;;;;0.00;0.00;;;24.20;85.60;;;;;;5113380;28;20399;-80
2022/06/28 11:32:45;;;;;;;0.00;0.00;;;24.00;86.60;;;;;;5096311;28;20048;-80
2022/06/28 11:35:19;;;;;;;0.00;0.00;;;23.70;78.50;;;;;;5113988;28;20433;-80
2022/06/28 11:37:55;;;;;;;0.00;0.00;;;23.40;85.40;;;;;;5096027;28;20104;-80
2022/06/28 11:40:25;;;;;;;0.00;0.00;;;23.50;82.00;;;;;;5113270;28;20043;-80
2022/06/28 11:43:11;;;;;;;0.00;0.00;;;23.40;85.30;;;;;;5113060;28;20054;-80
2022/06/28 11:45:39;;;;;;;1.45;0.43;;;23.40;82.90;;;;;;5095968;28;20077;-80
2022/06/28 11:48:16;;;;;;;0.00;0.00;;;23.60;88.70;;;;;;5113160;28;20061;-80
2022/06/28 11:50:44;;;;;;;0.00;0.00;;;23.90;87.10;;;;;;5113178;28;20093;-80
2022/06/28 11:53:12;;;;;;;0.00;0.00;;;24.20;91.60;;;;;;5113010;28;20070;-80
2022/06/28 11:55:39;;;;;;;1.35;0.30;;;24.30;85.00;;;;;;5095613;28;20065;-80
2022/06/28 11:58:30;;;;;;;0.00;0.00;;;24.00;81.30;;;;;;5096076;28;20184;-80
2022/06/28 12:01:01;;;;;;;0.00;0.00;;;24.10;80.20;;;;;;5112728;28;20048;-80
2022/06/28 12:03:27;;;;;;;0.00;0.00;;;24.30;83.20;;;;;;5095829;28;20387;-81
2022/06/28 12:06:01;;;;;;;2.20;0.38;;;24.50;77.80;;;;;;5095170;28;20051;-80
2022/06/28 12:08:51;;;;;;;0.10;0.00;;;24.70;82.10;;;;;;5113654;28;20048;-80
2022/06/28 12:11:31;;;;;;;0.00;0.00;;;24.80;83.50;;;;;;5096028;28;20505;-81
2022/06/28 12:14:08;;;;;;;0.00;0.00;;;24.70;77.30;;;;;;5096043;28;20047;-81
2022/06/28 12:16:42;;;;;;;0.00;0.00;;;24.40;72.70;;;;;;5096168;28;20056;-80
2022/06/28 12:19:12;;;;;;;0.03;0.00;;;24.50;78.70;;;;;;5112959;28;20036;-81
2022/06/28 12:21:38;;;;;;;0.00;0.00;;;24.40;72.70;;;;;;5095733;28;20055;-81
2022/06/28 12:24:04;;;;;;;0.70;0.20;;;24.20;75.30;;;;;;5112821;28;20047;-81
2022/06/28 12:26:44;;;;;;;0.00;0.00;;;23.90;75.70;;;;;;5112837;28;20043;-81
2022/06/28 12:29:12;;;;;;;0.00;0.00;;;23.90;76.50;;;;;;5117056;28;20093;-81
2022/06/28 12:31:44;;;;;;;0.00;0.00;;;23.90;79.40;;;;;;5116826;28;20051;-81
2022/06/28 12:34:13;;;;;;;0.00;0.00;;;24.10;81.20;;;;;;5116664;28;20491;-80
2022/06/28 12:36:38;;;;;;;0.10;0.10;;;24.20;69.20;;;;;;5116581;28;20047;-80
2022/06/28 12:39:04;;;;;;;0.00;0.00;;;24.10;72.80;;;;;;5116552;28;20040;-80
2022/06/28 12:41:30;;;;;;;0.10;0.10;;;24.40;78.30;;;;;;5116353;28;20441;-80
2022/06/28 12:43:56;;;;;;;0.00;0.00;;;24.60;77.10;;;;;;5099428;28;20043;-81
2022/06/28 12:46:21;;;;;;;0.00;0.00;;;24.80;79.70;;;;;;5099434;28;20055;-81
2022/06/28 12:48:47;;;;;;;0.00;0.00;;;25.00;77.50;;;;;;5116110;28;20044;-81
2022/06/28 12:51:13;;;;;;;0.00;0.00;;;25.10;74.50;;;;;;5098872;28;20055;-81
2022/06/28 12:53:38;;;;;;;0.10;0.10;;;25.30;72.40;;;;;;5115642;28;20051;-81
2022/06/28 12:56:04;;;;;;;0.00;0.00;;;25.40;67.50;;;;;;5116052;28;20581;-81
2022/06/28 12:58:30;;;;;;;0.00;0.00;;;25.20;69.00;;;;;;5116203;28;20483;-81
2022/06/28 13:00:55;;;;;;;0.00;0.00;;;25.50;76.50;;;;;;5116257;28;20047;-81
2022/06/28 13:03:21;;;;;;;0.00;0.00;;;25.60;70.90;;;;;;5115878;28;20521;-81
2022/06/28 13:05:48;;;;;;;0.00;0.00;;;25.70;69.30;;;;;;5115883;28;20075;-81